| time (UTC) | temp C | wind direction | speed KPH | gust KPH | rain 1hr cm | rain 24hr cm | rain mn cm | humidity % | barometer mb |
| 20260901074537 | 24 | 212 | 0.0 | 6.4 | 0.00 | 0.28 | 0.00 | 87 | 1011.4 |
| 20260901073027 | 24 | 231 | 0.0 | 8.0 | 0.00 | 0.28 | 0.00 | 87 | 1011.3 |
| 20260901071525 | 24 | 206 | 1.6 | 8.0 | 0.00 | 0.28 | 0.00 | 87 | 1011.3 |
| 20260901070024 | 24 | 275 | 0.0 | 4.8 | 0.00 | 0.28 | 0.00 | 87 | 1011.3 |
| 20260901064523 | 24 | 205 | 0.0 | 4.8 | 0.00 | 0.28 | 0.00 | 87 | 1011.3 |
| 20260901063023 | 24 | 224 | 1.6 | 4.8 | 0.00 | 0.28 | 0.00 | 88 | 1011.1 |
| 20260901061521 | 24 | 224 | 1.6 | 4.8 | 0.00 | 0.28 | 0.00 | 87 | 1011.0 |
| 20260901060019 | 24 | 245 | 0.0 | 3.2 | 0.00 | 0.28 | 0.00 | 87 | 1011.1 |
| 20260901054518 | 25 | 220 | 1.6 | 6.4 | 0.00 | 0.28 | 0.00 | 87 | 1011.2 |
| 20260901053015 | 25 | 218 | 3.2 | 6.4 | 0.00 | 0.28 | 0.00 | 86 | 1011.2 |
| 20260901051527 | 25 | 252 | 3.2 | 9.7 | 0.00 | 0.28 | 0.00 | 86 | 1011.1 |
| 20260901050013 | 25 | 233 | 3.2 | 8.0 | 0.00 | 0.28 | 0.00 | 87 | 1011.2 |
| 20260901044512 | 25 | 219 | 3.2 | 8.0 | 0.00 | 0.28 | 0.28 | 87 | 1011.3 |
| 20260901043012 | 25 | 210 | 0.0 | 9.7 | 0.00 | 0.28 | 0.28 | 87 | 1011.4 |
| 20260901041522 | 25 | 213 | 3.2 | 6.4 | 0.00 | 0.28 | 0.28 | 88 | 1011.4 |
| 20260901040018 | 25 | 229 | 1.6 | 6.4 | 0.00 | 0.28 | 0.28 | 88 | 1011.3 |
| 20260901034510 | 25 | 228 | 0.0 | 1.6 | 0.00 | 0.28 | 0.28 | 89 | 1011.4 |
| 20260901033012 | 25 | 228 | 0.0 | 3.2 | 0.00 | 0.28 | 0.28 | 89 | 1011.3 |
| 20260901031510 | 25 | 228 | 0.0 | 1.6 | 0.00 | 0.28 | 0.28 | 89 | 1011.5 |
| 20260901030009 | 25 | 228 | 0.0 | 1.6 | 0.00 | 0.28 | 0.28 | 89 | 1011.4 |
| 20260901024509 | 25 | 228 | 0.0 | 8.0 | 0.00 | 0.28 | 0.28 | 88 | 1011.4 |
| 20260901023010 | 25 | 229 | 0.0 | 0.0 | 0.00 | 0.28 | 0.28 | 88 | 1011.7 |
| 20260901021510 | 26 | 229 | 1.6 | 4.8 | 0.00 | 0.28 | 0.28 | 88 | 1011.5 |
| 20260901020008 | 26 | 167 | 0.0 | 6.4 | 0.00 | 0.28 | 0.28 | 87 | 1011.4 |
| 20260901014520 | 25 | 214 | 1.6 | 8.0 | 0.00 | 0.30 | 0.28 | 88 | 1011.2 |
| 20260901013006 | 26 | 271 | 0.0 | 3.2 | 0.00 | 0.30 | 0.28 | 87 | 1011.3 |
| 20260901011506 | 26 | 288 | 0.0 | 1.6 | 0.00 | 0.30 | 0.28 | 87 | 1011.3 |
| 20260901010006 | 26 | 288 | 0.0 | 1.6 | 0.00 | 0.30 | 0.28 | 85 | 1011.1 |
| 20260901004504 | 26 | 288 | 0.0 | 3.2 | 0.00 | 0.30 | 0.28 | 85 | 1011.2 |
| 20260901003005 | 26 | 218 | 0.0 | 1.6 | 0.03 | 0.30 | 0.28 | 83 | 1011.1 |
| 20260901001503 | 27 | 218 | 0.0 | 9.7 | 0.03 | 0.30 | 0.28 | 83 | 1010.9 |
| 20260901000003 | 27 | 226 | 1.6 | 17.7 | 0.03 | 0.30 | 0.28 | 83 | 1010.7 |
| 20260831234502 | 27 | 229 | 3.2 | 9.7 | 0.03 | 0.30 | 0.28 | 85 | 1010.2 |
| 20260831233001 | 27 | 278 | 0.0 | 3.2 | 0.05 | 0.28 | 0.25 | 87 | 1011.3 |
| 20260831231502 | 27 | 309 | 0.0 | 3.2 | 0.13 | 0.28 | 0.25 | 86 | 1011.3 |
| 20260831230101 | 28 | 166 | 0.0 | 0.0 | 0.13 | 0.28 | 0.25 | 84 | 1010.8 |
| 20260831224600 | 28 | 196 | 0.0 | 1.6 | 0.13 | 0.28 | 0.25 | 81 | 1010.6 |
| 20260831223059 | 30 | 226 | 1.6 | 9.7 | 0.10 | 0.25 | 0.23 | 72 | 1011.0 |
| 20260831221559 | 31 | 221 | 3.2 | 12.9 | 0.00 | 0.15 | 0.13 | 65 | 1010.6 |
| 20260831220059 | 31 | 203 | 0.0 | 16.1 | 0.00 | 0.15 | 0.13 | 63 | 1010.4 |
| 20260831214606 | 31 | 288 | 6.4 | 17.7 | 0.00 | 0.15 | 0.13 | 61 | 1010.3 |
| 20260831213057 | 31 | 215 | 3.2 | 11.3 | 0.00 | 0.15 | 0.13 | 62 | 1010.4 |
| 20260831211556 | 32 | 266 | 3.2 | 17.7 | 0.00 | 0.15 | 0.13 | 60 | 1010.6 |
| 20260831210053 | 31 | 233 | 1.6 | 12.9 | 0.00 | 0.15 | 0.13 | 62 | 1010.6 |
| 20260831204555 | 31 | 216 | 3.2 | 14.5 | 0.00 | 0.15 | 0.13 | 61 | 1010.7 |
| 20260831203052 | 31 | 290 | 1.6 | 14.5 | 0.00 | 0.15 | 0.13 | 62 | 1010.9 |
| 20260831201551 | 31 | 314 | 4.8 | 16.1 | 0.00 | 0.15 | 0.13 | 61 | 1011.1 |
| 20260831200050 | 31 | 216 | 4.8 | 12.9 | 0.00 | 0.15 | 0.13 | 61 | 1010.7 |
| 20260831194549 | 31 | 224 | 4.8 | 14.5 | 0.00 | 0.15 | 0.13 | 60 | 1010.8 |
| 20260831193047 | 32 | 205 | 4.8 | 16.1 | 0.00 | 0.15 | 0.13 | 57 | 1011.1 |
| 20260831191544 | 31 | 172 | 4.8 | 20.9 | 0.00 | 0.15 | 0.13 | 59 | 1011.0 |
| 20260831190043 | 31 | 214 | 4.8 | 19.3 | 0.00 | 0.15 | 0.13 | 58 | 1011.0 |
| 20260831184540 | 30 | 177 | 6.4 | 27.4 | 0.00 | 0.15 | 0.13 | 59 | 1011.0 |
| 20260831183039 | 30 | 176 | 9.7 | 20.9 | 0.00 | 0.15 | 0.13 | 59 | 1011.1 |
| 20260831181537 | 30 | 214 | 6.4 | 20.9 | 0.00 | 0.15 | 0.13 | 63 | 1011.3 |
| 20260831180031 | 29 | 209 | 6.4 | 20.9 | 0.00 | 0.15 | 0.13 | 64 | 1011.4 |
| 20260831174530 | 28 | 217 | 4.8 | 14.5 | 0.00 | 0.15 | 0.13 | 68 | 1011.5 |
| 20260831173024 | 27 | 176 | 6.4 | 17.7 | 0.00 | 0.15 | 0.13 | 71 | 1011.6 |
| 20260831171523 | 26 | 126 | 9.7 | 19.3 | 0.00 | 0.15 | 0.13 | 74 | 1012.0 |
| 20260831170019 | 25 | 206 | 4.8 | 16.1 | 0.00 | 0.15 | 0.13 | 76 | 1012.4 |
| 20260831164516 | 25 | 183 | 6.4 | 16.1 | 0.00 | 0.15 | 0.13 | 78 | 1012.6 |
| 20260831163010 | 24 | 163 | 6.4 | 20.9 | 0.00 | 0.15 | 0.13 | 79 | 1012.7 |
| 20260831161508 | 23 | 219 | 4.8 | 14.5 | 0.00 | 0.15 | 0.13 | 84 | 1012.7 |
| 20260831160007 | 22 | 205 | 4.8 | 12.9 | 0.00 | 0.15 | 0.13 | 86 | 1012.7 |
| 20260831154506 | 22 | 139 | 1.6 | 9.7 | 0.00 | 0.15 | 0.13 | 88 | 1012.9 |
| 20260831153006 | 22 | 183 | 4.8 | 11.3 | 0.00 | 0.15 | 0.13 | 86 | 1013.1 |
| 20260831151510 | 22 | 160 | 3.2 | 9.7 | 0.00 | 0.15 | 0.13 | 86 | 1013.1 |
| 20260831150005 | 21 | 189 | 3.2 | 11.3 | 0.00 | 0.15 | 0.13 | 87 | 1013.2 |
| 20260831144502 | 21 | 109 | 3.2 | 9.7 | 0.00 | 0.15 | 0.13 | 88 | 1013.0 |
| 20260831143003 | 21 | 163 | 1.6 | 9.7 | 0.00 | 0.15 | 0.13 | 88 | 1013.1 |
| 20260831141502 | 21 | 96 | 3.2 | 8.0 | 0.00 | 0.15 | 0.13 | 89 | 1013.1 |
| 20260831140003 | 21 | 148 | 1.6 | 4.8 | 0.08 | 0.28 | 0.13 | 90 | 1013.2 |
| 20260831134501 | 20 | 119 | 0.0 | 9.7 | 0.08 | 0.28 | 0.13 | 90 | 1013.1 |
| 20260831133102 | 20 | 153 | 1.6 | 4.8 | 0.08 | 0.28 | 0.13 | 90 | 1013.0 |
| 20260831131610 | 21 | 234 | 1.6 | 4.8 | 0.08 | 0.28 | 0.13 | 89 | 1013.1 |
| 20260831130057 | 21 | 70 | 0.0 | 4.8 | 0.00 | 0.20 | 0.05 | 85 | 1013.3 |
| 20260831124601 | 21 | 203 | 0.0 | 1.6 | 0.00 | 0.38 | 0.05 | 82 | 1012.9 |
| 20260831123052 | 21 | 305 | 0.0 | 3.2 | 0.00 | 0.38 | 0.05 | 82 | 1012.6 |
| 20260831121554 | 21 | 244 | 3.2 | 16.1 | 0.00 | 0.38 | 0.05 | 83 | 1012.3 |
| 20260831120048 | 21 | 184 | 3.2 | 9.7 | 0.05 | 0.38 | 0.05 | 85 | 1012.0 |
| 20260831114552 | 21 | 161 | 1.6 | 6.4 | 0.05 | 0.38 | 0.05 | 86 | 1011.9 |
| 20260831113048 | 21 | 223 | 1.6 | 6.4 | 0.05 | 0.38 | 0.05 | 86 | 1011.7 |
| 20260831111550 | 21 | 215 | 3.2 | 9.7 | 0.05 | 0.38 | 0.05 | 81 | 1011.8 |
| 20260831110055 | 22 | 219 | 6.4 | 14.5 | 0.00 | 0.33 | 0.00 | 76 | 1012.0 |
| 20260831104542 | 22 | 231 | 1.6 | 9.7 | 0.00 | 0.33 | 0.00 | 75 | 1011.9 |
| 20260831103040 | 22 | 231 | 6.4 | 11.3 | 0.00 | 0.33 | 0.00 | 73 | 1011.9 |
| 20260831101544 | 23 | 238 | 3.2 | 11.3 | 0.00 | 0.33 | 0.00 | 73 | 1011.8 |
| 20260831100035 | 23 | 201 | 3.2 | 9.7 | 0.00 | 0.33 | 0.00 | 73 | 1011.5 |
| 20260831094539 | 23 | 149 | 3.2 | 11.3 | 0.00 | 0.33 | 0.00 | 74 | 1011.7 |
| 20260831093033 | 23 | 165 | 3.2 | 11.3 | 0.00 | 0.33 | 0.00 | 74 | 1011.8 |
| 20260831091544 | 23 | 240 | 1.6 | 8.0 | 0.00 | 0.33 | 0.00 | 74 | 1011.9 |
| 20260831090030 | 23 | 163 | 1.6 | 12.9 | 0.00 | 0.33 | 0.00 | 75 | 1011.8 |
| 20260831084529 | 23 | 219 | 3.2 | 11.3 | 0.00 | 0.33 | 0.00 | 76 | 1011.9 |
| 20260831083029 | 23 | 224 | 3.2 | 8.0 | 0.00 | 0.33 | 0.00 | 77 | 1011.8 |
| 20260831081528 | 23 | 231 | 3.2 | 9.7 | 0.00 | 0.33 | 0.00 | 76 | 1011.8 |
| 20260831080031 | 23 | 207 | 4.8 | 11.3 | 0.00 | 0.33 | 0.00 | 76 | 1011.8 |